Time;durP1;ratioP1;P1;durP2;ratioP2;P2;SDS_P1;SDS_P2;PMS_P1;PMS_P2;Temp;Humidity;BMP_temperature;BMP_pressure;BME280_temperature;BME280_humidity;BME280_pressure;Samples;Min_cycle;Max_cycle;Signal;HPM_P1;HPM_P2
2022/03/04 00:00:02;;;;;;;20.80;10.47;;;;;;;;;;5013923;28;20542;-84
2022/03/04 00:02:28;;;;;;;25.80;12.00;;;;;;;;;;5013946;28;20402;-84
2022/03/04 00:04:54;;;;;;;23.37;9.60;;;;;;;;;;4995724;28;20972;-81
2022/03/04 00:07:19;;;;;;;20.83;10.33;;;;;;;;;;5013732;28;20472;-83
2022/03/04 00:09:45;;;;;;;11.00;8.13;;;;;;;;;;5013755;28;20414;-81
2022/03/04 00:12:12;;;;;;;22.77;9.37;;;;;;;;;;5013747;28;20421;-81
2022/03/04 00:14:38;;;;;;;23.50;10.00;;;;;;;;;;5013233;28;20406;-83
2022/03/04 00:17:04;;;;;;;20.73;9.27;;;;;;;;;;5013864;28;20776;-83
2022/03/04 00:19:30;;;;;;;18.33;8.73;;;;;;;;;;5013341;28;20801;-83
2022/03/04 00:21:56;;;;;;;19.90;10.20;;;;;;;;;;4996171;28;20425;-83
2022/03/04 00:24:23;;;;;;;21.90;10.97;;;;;;;;;;5014232;28;20441;-83
2022/03/04 00:26:49;;;;;;;25.10;9.30;;;;;;;;;;4995342;28;20465;-83
2022/03/04 00:29:16;;;;;;;28.37;9.70;;;;;;;;;;5012996;28;20418;-83
2022/03/04 00:31:45;;;;;;;24.27;11.00;;;;;;;;;;5013885;28;20764;-83
2022/03/04 00:34:11;;;;;;;25.13;9.07;;;;;;;;;;5013317;28;20459;-82
2022/03/04 00:36:38;;;;;;;16.10;9.70;;;;;;;;;;5013637;28;20444;-90
2022/03/04 00:39:06;;;;;;;22.00;10.37;;;;;;;;;;5013595;28;21008;-87
2022/03/04 00:41:32;;;;;;;22.90;10.97;;;;;;;;;;5004602;28;20510;-86
2022/03/04 00:43:58;;;;;;;24.03;11.37;;;;;;;;;;4998725;28;20921;-83
2022/03/04 00:46:24;;;;;;;36.00;11.60;;;;;;;;;;4976680;28;20422;-84
2022/03/04 00:48:50;;;;;;;17.47;9.40;;;;;;;;;;4993625;28;20509;-85
2022/03/04 00:51:16;;;;;;;14.87;9.60;;;;;;;;;;4993970;28;20509;-85
2022/03/04 00:53:43;;;;;;;24.13;8.90;;;;;;;;;;4993846;28;20414;-85
2022/03/04 00:56:09;;;;;;;19.03;11.23;;;;;;;;;;4993815;28;20431;-85
2022/03/04 00:58:39;;;;;;;21.30;10.47;;;;;;;;;;4993721;28;20943;-84
2022/03/04 01:01:05;;;;;;;19.07;11.37;;;;;;;;;;4993666;28;20429;-85
2022/03/04 01:03:31;;;;;;;20.03;11.50;;;;;;;;;;4975809;28;20521;-84
2022/03/04 01:05:58;;;;;;;17.90;8.63;;;;;;;;;;4993586;28;20484;-84
2022/03/04 01:08:24;;;;;;;16.90;10.37;;;;;;;;;;4993536;28;20414;-85
2022/03/04 01:10:50;;;;;;;26.00;10.90;;;;;;;;;;4993550;28;20882;-85
2022/03/04 01:13:17;;;;;;;17.17;9.97;;;;;;;;;;4993465;28;20442;-84
2022/03/04 01:15:43;;;;;;;17.80;10.73;;;;;;;;;;4993573;28;20440;-84
2022/03/04 01:18:09;;;;;;;17.70;10.50;;;;;;;;;;4993133;28;20442;-84
2022/03/04 01:20:35;;;;;;;19.97;10.30;;;;;;;;;;4975979;28;20535;-85
2022/03/04 01:23:01;;;;;;;17.87;10.60;;;;;;;;;;4993421;28;20414;-85
2022/03/04 01:25:27;;;;;;;18.87;11.00;;;;;;;;;;4975894;28;20425;-86
2022/03/04 01:27:54;;;;;;;24.90;11.57;;;;;;;;;;4975754;28;20901;-85
2022/03/04 01:30:20;;;;;;;25.53;12.87;;;;;;;;;;4993396;28;20502;-85
2022/03/04 01:32:46;;;;;;;15.97;8.93;;;;;;;;;;4993359;28;20841;-84
2022/03/04 01:35:12;;;;;;;19.77;10.50;;;;;;;;;;4992954;28;20622;-83
2022/03/04 01:37:39;;;;;;;31.33;10.40;;;;;;;;;;4993341;28;20494;-83
2022/03/04 01:40:06;;;;;;;16.53;10.30;;;;;;;;;;4994484;28;20470;-83
2022/03/04 01:42:33;;;;;;;18.37;11.40;;;;;;;;;;4997189;28;20407;-83
2022/03/04 01:44:59;;;;;;;20.40;11.87;;;;;;;;;;4997038;28;20461;-83
2022/03/04 01:47:25;;;;;;;18.13;9.70;;;;;;;;;;4979540;28;20530;-83
2022/03/04 01:49:51;;;;;;;16.73;11.60;;;;;;;;;;4979143;28;20461;-84
2022/03/04 01:52:17;;;;;;;28.60;10.90;;;;;;;;;;4996925;28;20421;-83
2022/03/04 01:54:43;;;;;;;24.80;13.63;;;;;;;;;;4996855;28;20557;-84
2022/03/04 01:57:09;;;;;;;19.17;10.43;;;;;;;;;;4979447;28;20484;-83
2022/03/04 01:59:36;;;;;;;17.87;9.90;;;;;;;;;;4979175;28;20584;-84
2022/03/04 02:02:02;;;;;;;20.47;9.67;;;;;;;;;;4996809;28;20513;-84
2022/03/04 02:04:28;;;;;;;20.00;8.73;;;;;;;;;;4996392;28;20502;-83
2022/03/04 02:06:54;;;;;;;23.67;10.70;;;;;;;;;;4996717;28;20735;-82
2022/03/04 02:09:20;;;;;;;23.77;10.30;;;;;;;;;;4996615;28;20419;-85
2022/03/04 02:11:48;;;;;;;20.00;9.90;;;;;;;;;;4996580;28;20462;-85
2022/03/04 02:14:14;;;;;;;23.50;11.70;;;;;;;;;;4996625;28;20494;-84
2022/03/04 02:16:45;;;;;;;21.33;9.90;;;;;;;;;;4996541;28;20497;-84
2022/03/04 02:19:12;;;;;;;33.43;12.73;;;;;;;;;;5011847;28;20481;-84
2022/03/04 02:21:41;;;;;;;22.17;12.67;;;;;;;;;;5015857;28;20433;-82
2022/03/04 02:24:07;;;;;;;19.80;10.47;;;;;;;;;;5015821;28;20843;-82
2022/03/04 02:26:33;;;;;;;19.37;10.20;;;;;;;;;;5015653;28;20528;-84
2022/03/04 02:28:59;;;;;;;21.37;11.00;;;;;;;;;;5015790;28;20929;-83
2022/03/04 02:31:25;;;;;;;18.47;11.23;;;;;;;;;;5015740;28;20410;-82
2022/03/04 02:33:51;;;;;;;26.30;11.27;;;;;;;;;;5015384;28;20747;-82
2022/03/04 02:36:17;;;;;;;15.00;9.33;;;;;;;;;;5015748;28;20460;-83
2022/03/04 02:38:44;;;;;;;18.97;10.43;;;;;;;;;;5015493;28;20561;-83
2022/03/04 02:41:10;;;;;;;20.43;10.93;;;;;;;;;;5015706;28;20425;-83
2022/03/04 02:43:36;;;;;;;24.77;11.37;;;;;;;;;;5015560;28;20789;-83
2022/03/04 02:46:02;;;;;;;19.27;10.13;;;;;;;;;;4998011;28;20518;-83
2022/03/04 02:48:28;;;;;;;25.80;12.00;;;;;;;;;;5014969;28;20463;-83
2022/03/04 02:50:54;;;;;;;20.77;9.93;;;;;;;;;;4997394;28;20426;-82
2022/03/04 02:53:20;;;;;;;20.97;11.00;;;;;;;;;;4997419;28;20425;-82
2022/03/04 02:55:46;;;;;;;14.53;10.20;;;;;;;;;;5015338;28;20516;-83
2022/03/04 02:58:11;;;;;;;18.87;10.47;;;;;;;;;;4997759;28;20493;-83
2022/03/04 03:00:38;;;;;;;21.17;9.40;;;;;;;;;;5015203;28;20472;-83
2022/03/04 03:03:04;;;;;;;20.00;10.10;;;;;;;;;;5014859;28;20414;-83
2022/03/04 03:05:30;;;;;;;16.00;8.37;;;;;;;;;;5015126;28;20420;-84
2022/03/04 03:07:56;;;;;;;17.80;9.83;;;;;;;;;;5015105;28;20414;-83
2022/03/04 03:10:21;;;;;;;18.10;8.87;;;;;;;;;;5015090;28;20564;-83
2022/03/04 03:12:47;;;;;;;18.70;10.77;;;;;;;;;;5015099;28;20495;-82
2022/03/04 03:15:15;;;;;;;16.67;9.40;;;;;;;;;;5015034;28;20964;-82
2022/03/04 03:17:41;;;;;;;21.97;10.53;;;;;;;;;;5015002;28;20415;-83
2022/03/04 03:20:07;;;;;;;13.80;8.77;;;;;;;;;;5014417;28;20568;-84
2022/03/04 03:22:33;;;;;;;18.20;11.50;;;;;;;;;;5014872;28;20747;-84
2022/03/04 03:24:59;;;;;;;20.20;10.57;;;;;;;;;;5014738;28;20433;-83
2022/03/04 03:27:25;;;;;;;12.87;8.13;;;;;;;;;;4997025;28;20966;-84
2022/03/04 03:29:51;;;;;;;21.30;11.00;;;;;;;;;;5014782;28;20438;-84
2022/03/04 03:32:17;;;;;;;25.63;10.10;;;;;;;;;;5014675;28;20903;-84
2022/03/04 03:34:43;;;;;;;36.10;12.10;;;;;;;;;;5014365;28;20746;-84
2022/03/04 03:37:10;;;;;;;24.17;10.17;;;;;;;;;;4997111;28;20433;-84
2022/03/04 03:39:37;;;;;;;31.03;11.33;;;;;;;;;;5014534;28;20476;-84
2022/03/04 03:42:03;;;;;;;21.40;8.40;;;;;;;;;;5014517;28;20410;-84
2022/03/04 03:44:29;;;;;;;28.63;11.30;;;;;;;;;;4996704;28;20508;-84
2022/03/04 03:46:56;;;;;;;28.43;12.60;;;;;;;;;;5014498;28;20413;-81
2022/03/04 03:49:22;;;;;;;31.27;10.90;;;;;;;;;;4996428;28;20430;-83
2022/03/04 03:51:48;;;;;;;36.43;10.90;;;;;;;;;;5014339;28;20428;-82
2022/03/04 03:54:14;;;;;;;28.20;9.03;;;;;;;;;;5014216;28;20509;-83
2022/03/04 03:56:40;;;;;;;14.90;8.30;;;;;;;;;;5014305;28;20409;-83
2022/03/04 03:59:06;;;;;;;16.83;7.10;;;;;;;;;;5014224;28;20465;-83
2022/03/04 04:01:33;;;;;;;19.53;9.30;;;;;;;;;;5014270;28;20470;-84
2022/03/04 04:03:59;;;;;;;14.13;8.87;;;;;;;;;;5014997;28;20453;-83
2022/03/04 04:06:25;;;;;;;16.10;8.10;;;;;;;;;;5015298;28;20412;-83
2022/03/04 04:08:51;;;;;;;19.27;11.07;;;;;;;;;;5014125;28;20410;-83
2022/03/04 04:11:17;;;;;;;17.07;9.13;;;;;;;;;;5014077;28;20417;-82
2022/03/04 04:13:43;;;;;;;16.17;9.87;;;;;;;;;;5013994;28;20450;-83
2022/03/04 04:16:09;;;;;;;19.13;10.00;;;;;;;;;;5013916;28;20414;-83
2022/03/04 04:18:36;;;;;;;18.63;7.57;;;;;;;;;;5013489;28;20438;-84
2022/03/04 04:21:02;;;;;;;22.50;8.83;;;;;;;;;;5013892;28;20547;-83
2022/03/04 04:23:28;;;;;;;16.50;8.27;;;;;;;;;;4996101;28;20415;-83
2022/03/04 04:25:54;;;;;;;19.50;10.00;;;;;;;;;;5013772;28;20925;-85
2022/03/04 04:28:22;;;;;;;17.50;10.67;;;;;;;;;;5013590;28;20866;-84
2022/03/04 04:30:48;;;;;;;25.10;11.83;;;;;;;;;;4996183;28;20831;-84
2022/03/04 04:33:14;;;;;;;19.20;9.17;;;;;;;;;;5013311;28;20410;-85
2022/03/04 04:35:40;;;;;;;29.07;11.07;;;;;;;;;;5013558;28;20954;-84
2022/03/04 04:38:06;;;;;;;20.40;11.20;;;;;;;;;;5013511;28;20428;-86
2022/03/04 04:40:32;;;;;;;16.33;8.73;;;;;;;;;;5013426;28;20477;-85
2022/03/04 04:42:58;;;;;;;17.50;9.90;;;;;;;;;;5013583;28;20441;-84
2022/03/04 04:45:24;;;;;;;24.30;11.53;;;;;;;;;;5013472;28;20779;-84
2022/03/04 04:47:50;;;;;;;17.73;10.90;;;;;;;;;;5013106;28;20442;-85
2022/03/04 04:50:16;;;;;;;19.97;11.40;;;;;;;;;;5013390;28;20424;-85
2022/03/04 04:52:42;;;;;;;18.33;10.33;;;;;;;;;;5013422;28;20783;-85
2022/03/04 04:55:09;;;;;;;16.13;8.90;;;;;;;;;;5013388;28;20412;-86
2022/03/04 04:57:38;;;;;;;22.87;8.70;;;;;;;;;;5013274;28;20427;-86
2022/03/04 05:00:04;;;;;;;21.63;9.63;;;;;;;;;;5013241;28;20969;-84
2022/03/04 05:02:30;;;;;;;17.83;9.73;;;;;;;;;;5012992;28;20413;-84
2022/03/04 05:04:56;;;;;;;16.50;8.00;;;;;;;;;;5013421;28;20410;-84
2022/03/04 05:07:22;;;;;;;21.43;8.23;;;;;;;;;;5013343;28;20425;-84
2022/03/04 05:09:48;;;;;;;19.73;10.43;;;;;;;;;;5013226;28;20435;-85
2022/03/04 05:12:15;;;;;;;19.83;8.70;;;;;;;;;;5013239;28;20406;-84
2022/03/04 05:14:41;;;;;;;10.23;6.93;;;;;;;;;;4997242;28;20434;-85
2022/03/04 05:17:07;;;;;;;12.07;7.87;;;;;;;;;;5019753;28;20468;-85
2022/03/04 05:19:33;;;;;;;17.43;10.10;;;;;;;;;;5019261;28;20870;-85
2022/03/04 05:21:59;;;;;;;14.67;7.27;;;;;;;;;;5019714;28;20410;-84
2022/03/04 05:24:25;;;;;;;11.90;7.80;;;;;;;;;;5019539;28;20894;-84
2022/03/04 05:26:51;;;;;;;15.67;8.70;;;;;;;;;;5019387;28;20464;-83
2022/03/04 05:29:17;;;;;;;18.47;9.97;;;;;;;;;;5001934;28;20410;-83
2022/03/04 05:31:43;;;;;;;14.53;7.87;;;;;;;;;;5019548;28;20901;-83
2022/03/04 05:34:10;;;;;;;24.20;8.90;;;;;;;;;;5019170;28;20507;-83
2022/03/04 05:36:39;;;;;;;17.37;9.03;;;;;;;;;;5019422;28;20425;-84
2022/03/04 05:39:06;;;;;;;15.00;9.33;;;;;;;;;;5019279;28;20472;-84
2022/03/04 05:41:32;;;;;;;20.63;9.00;;;;;;;;;;5001699;28;20910;-84
2022/03/04 05:43:58;;;;;;;28.53;9.80;;;;;;;;;;5019373;28;20457;-83
2022/03/04 05:46:24;;;;;;;15.57;10.20;;;;;;;;;;5001796;28;20437;-84
2022/03/04 05:48:50;;;;;;;21.80;11.40;;;;;;;;;;5001343;28;20995;-84
2022/03/04 05:51:17;;;;;;;11.97;6.57;;;;;;;;;;5019251;28;20421;-84
2022/03/04 05:53:43;;;;;;;11.83;6.87;;;;;;;;;;5001677;28;20414;-84
2022/03/04 05:56:10;;;;;;;13.13;6.90;;;;;;;;;;5019222;28;20897;-83
2022/03/04 05:58:36;;;;;;;13.10;9.13;;;;;;;;;;5001420;28;20528;-84
2022/03/04 06:01:03;;;;;;;15.03;7.57;;;;;;;;;;5001401;28;20422;-84
2022/03/04 06:03:29;;;;;;;17.13;10.27;;;;;;;;;;5018776;28;20817;-84
2022/03/04 06:05:56;;;;;;;12.87;7.73;;;;;;;;;;5001508;28;20437;-85
2022/03/04 06:08:22;;;;;;;16.70;8.33;;;;;;;;;;5001587;28;20429;-84
2022/03/04 06:10:48;;;;;;;16.40;6.80;;;;;;;;;;5019127;28;20418;-84
2022/03/04 06:13:14;;;;;;;15.70;7.80;;;;;;;;;;5001548;28;20790;-83
2022/03/04 06:15:40;;;;;;;14.27;7.43;;;;;;;;;;5019161;28;20520;-84
2022/03/04 06:18:06;;;;;;;15.30;8.03;;;;;;;;;;5018739;28;20504;-84
2022/03/04 06:20:35;;;;;;;15.70;6.67;;;;;;;;;;5018697;28;20554;-84
2022/03/04 06:23:01;;;;;;;13.53;6.60;;;;;;;;;;5001258;28;20520;-86
2022/03/04 06:25:27;;;;;;;10.50;6.73;;;;;;;;;;5019164;28;20930;-85
2022/03/04 06:27:53;;;;;;;16.53;6.60;;;;;;;;;;4997601;28;20472;-85
2022/03/04 06:30:20;;;;;;;14.80;8.67;;;;;;;;;;5016306;28;20416;-85
2022/03/04 06:32:46;;;;;;;12.27;6.70;;;;;;;;;;4997754;28;20418;-85
2022/03/04 06:35:15;;;;;;;9.67;5.50;;;;;;;;;;4997893;28;20844;-84
2022/03/04 06:37:41;;;;;;;15.90;7.57;;;;;;;;;;5014044;28;20496;-84
2022/03/04 06:40:07;;;;;;;10.50;5.60;;;;;;;;;;5015659;28;20512;-85
2022/03/04 06:42:34;;;;;;;12.67;6.20;;;;;;;;;;5014764;28;20416;-86
2022/03/04 06:45:00;;;;;;;12.60;6.57;;;;;;;;;;5015615;28;20447;-86
2022/03/04 06:47:26;;;;;;;12.30;5.90;;;;;;;;;;5015245;28;20405;-85
2022/03/04 06:49:52;;;;;;;9.73;5.93;;;;;;;;;;5015533;28;20774;-85
2022/03/04 06:52:21;;;;;;;10.70;6.43;;;;;;;;;;4997722;28;20511;-85
2022/03/04 06:54:47;;;;;;;11.63;7.17;;;;;;;;;;5015407;28;20412;-84
2022/03/04 06:57:14;;;;;;;13.00;6.17;;;;;;;;;;4997838;28;20504;-85
2022/03/04 06:59:40;;;;;;;9.77;4.53;;;;;;;;;;4997617;28;20538;-85
2022/03/04 07:02:06;;;;;;;11.47;5.83;;;;;;;;;;5015386;28;20803;-85
2022/03/04 07:04:32;;;;;;;7.40;4.10;;;;;;;;;;4997536;28;20517;-85
2022/03/04 07:06:58;;;;;;;12.93;5.70;;;;;;;;;;5015166;28;20508;-85
2022/03/04 07:09:24;;;;;;;5.70;3.93;;;;;;;;;;5015268;28;20502;-85
2022/03/04 07:11:50;;;;;;;9.23;4.90;;;;;;;;;;4997597;28;20506;-85
2022/03/04 07:14:17;;;;;;;9.17;5.50;;;;;;;;;;5015083;28;20936;-85
2022/03/04 07:16:43;;;;;;;8.33;4.23;;;;;;;;;;5015148;28;20974;-84
2022/03/04 07:19:09;;;;;;;9.53;6.00;;;;;;;;;;5014678;28;20548;-86
2022/03/04 07:21:35;;;;;;;9.90;5.10;;;;;;;;;;4997465;28;20486;-85
2022/03/04 07:24:01;;;;;;;12.33;5.40;;;;;;;;;;5015207;28;20841;-85
2022/03/04 07:26:27;;;;;;;11.97;6.67;;;;;;;;;;5014979;28;20420;-85
2022/03/04 07:28:53;;;;;;;12.70;8.63;;;;;;;;;;5015013;28;20405;-86
2022/03/04 07:31:19;;;;;;;10.40;5.63;;;;;;;;;;4997439;28;21010;-84
2022/03/04 07:33:45;;;;;;;14.70;6.20;;;;;;;;;;5014801;28;20414;-84
2022/03/04 07:36:11;;;;;;;12.03;5.90;;;;;;;;;;4997479;28;20418;-83
2022/03/04 07:38:37;;;;;;;13.60;6.70;;;;;;;;;;5014470;28;20417;-83
2022/03/04 07:41:03;;;;;;;10.03;5.73;;;;;;;;;;5015550;28;20421;-84
2022/03/04 07:43:29;;;;;;;7.23;4.20;;;;;;;;;;5016324;28;20453;-84
2022/03/04 07:45:55;;;;;;;9.43;4.80;;;;;;;;;;5016196;28;20441;-83
2022/03/04 07:48:21;;;;;;;10.17;5.40;;;;;;;;;;4997936;28;20877;-84
2022/03/04 07:50:47;;;;;;;9.00;5.30;;;;;;;;;;4998401;28;20422;-84
2022/03/04 07:53:13;;;;;;;12.30;5.67;;;;;;;;;;5015444;28;20513;-84
2022/03/04 07:55:40;;;;;;;13.83;6.83;;;;;;;;;;5017368;28;20418;-85
2022/03/04 07:58:09;;;;;;;8.70;5.23;;;;;;;;;;5019590;28;20456;-84
2022/03/04 08:00:36;;;;;;;10.80;4.87;;;;;;;;;;5000835;28;20504;-86
2022/03/04 08:03:02;;;;;;;11.93;4.23;;;;;;;;;;5017896;28;20409;-86
2022/03/04 08:05:28;;;;;;;9.30;4.60;;;;;;;;;;5017335;28;20421;-85
2022/03/04 08:07:54;;;;;;;8.90;4.87;;;;;;;;;;5017099;28;20411;-85
2022/03/04 08:10:20;;;;;;;7.60;4.40;;;;;;;;;;5020102;28;20417;-86
2022/03/04 08:12:46;;;;;;;8.83;5.00;;;;;;;;;;5001165;28;20979;-87
2022/03/04 08:15:13;;;;;;;5.87;3.23;;;;;;;;;;5016060;28;20425;-85
2022/03/04 08:17:40;;;;;;;9.83;5.47;;;;;;;;;;4996021;28;20780;-85
2022/03/04 08:20:06;;;;;;;8.33;3.97;;;;;;;;;;4996420;28;20517;-84
2022/03/04 08:22:32;;;;;;;13.17;6.57;;;;;;;;;;4996252;28;20426;-85
2022/03/04 08:24:58;;;;;;;11.10;5.20;;;;;;;;;;4996373;28;20789;-85
2022/03/04 08:27:24;;;;;;;10.23;4.67;;;;;;;;;;4996146;28;20458;-87
2022/03/04 08:29:50;;;;;;;6.50;4.53;;;;;;;;;;4996579;28;20453;-84
2022/03/04 08:32:23;;;;;;;10.33;4.80;;;;;;;;;;4995512;28;20784;-85
2022/03/04 08:34:49;;;;;;;8.67;5.10;;;;;;;;;;5013691;28;20421;-85
2022/03/04 08:37:16;;;;;;;7.40;4.50;;;;;;;;;;4998393;28;20889;-86
2022/03/04 08:39:41;;;;;;;8.67;4.63;;;;;;;;;;5013946;28;21080;-85
2022/03/04 08:42:08;;;;;;;6.20;4.30;;;;;;;;;;5015553;28;20432;-88
2022/03/04 08:44:34;;;;;;;10.47;4.77;;;;;;;;;;5019502;28;20481;-85
2022/03/04 08:47:00;;;;;;;9.03;4.67;;;;;;;;;;5020384;28;20524;-85
2022/03/04 08:49:26;;;;;;;7.37;4.30;;;;;;;;;;5036332;28;20430;-85
2022/03/04 08:51:52;;;;;;;8.53;4.63;;;;;;;;;;5015438;28;20409;-84
2022/03/04 08:54:18;;;;;;;9.83;5.10;;;;;;;;;;5014179;28;20476;-85
2022/03/04 08:56:43;;;;;;;8.80;4.40;;;;;;;;;;5013705;28;20414;-84
2022/03/04 08:59:09;;;;;;;6.47;3.50;;;;;;;;;;5013553;28;20481;-84
2022/03/04 09:01:35;;;;;;;4.80;2.80;;;;;;;;;;5013448;28;20439;-85
2022/03/04 09:04:01;;;;;;;6.07;3.87;;;;;;;;;;5013166;28;20421;-84
2022/03/04 09:06:27;;;;;;;8.60;4.70;;;;;;;;;;5013283;28;20417;-86
2022/03/04 09:08:53;;;;;;;7.57;4.53;;;;;;;;;;5013252;28;20413;-85
2022/03/04 09:11:25;;;;;;;10.77;6.13;;;;;;;;;;4995602;28;20429;-84
2022/03/04 09:13:51;;;;;;;6.07;4.07;;;;;;;;;;5013171;28;20445;-84
2022/03/04 09:16:17;;;;;;;5.57;4.03;;;;;;;;;;5013173;28;20420;-84
2022/03/04 09:18:43;;;;;;;7.40;4.60;;;;;;;;;;4995002;28;20414;-85
2022/03/04 09:21:09;;;;;;;10.57;6.27;;;;;;;;;;5013006;28;20780;-85
2022/03/04 09:23:35;;;;;;;9.20;5.20;;;;;;;;;;5013029;28;20492;-84
2022/03/04 09:26:01;;;;;;;8.67;4.87;;;;;;;;;;5013061;28;20426;-85
2022/03/04 09:28:27;;;;;;;8.40;4.87;;;;;;;;;;4995275;28;20824;-86
2022/03/04 09:30:53;;;;;;;9.30;5.40;;;;;;;;;;5014425;28;20422;-85
2022/03/04 09:33:19;;;;;;;11.77;5.43;;;;;;;;;;5013162;28;20432;-85
2022/03/04 09:35:45;;;;;;;9.30;5.23;;;;;;;;;;5013117;28;20422;-85
2022/03/04 09:38:11;;;;;;;9.40;5.20;;;;;;;;;;5013125;28;20432;-85
2022/03/04 09:40:37;;;;;;;5.43;3.90;;;;;;;;;;5013197;28;20520;-84
2022/03/04 09:43:06;;;;;;;7.00;4.33;;;;;;;;;;4995901;28;20449;-85
2022/03/04 09:45:31;;;;;;;9.60;5.10;;;;;;;;;;4995827;28;20449;-85
2022/03/04 09:47:57;;;;;;;10.90;6.00;;;;;;;;;;5012917;28;20407;-85
2022/03/04 09:50:23;;;;;;;10.47;6.00;;;;;;;;;;5013282;28;20403;-84
2022/03/04 09:52:50;;;;;;;9.13;5.10;;;;;;;;;;5013195;28;20416;-85
2022/03/04 09:55:16;;;;;;;9.97;5.17;;;;;;;;;;5012900;28;20418;-84
2022/03/04 09:57:42;;;;;;;7.90;4.00;;;;;;;;;;5012962;28;20468;-84
2022/03/04 10:00:11;;;;;;;11.43;4.60;;;;;;;;;;4995319;28;20514;-85
2022/03/04 10:02:37;;;;;;;9.53;5.20;;;;;;;;;;4998849;28;20953;-82
2022/03/04 10:05:03;;;;;;;12.00;4.70;;;;;;;;;;4998973;28;20521;-82
2022/03/04 10:07:39;;;;;;;9.87;5.47;;;;;;;;;;5016675;28;20416;-82
2022/03/04 10:10:10;;;;;;;8.37;4.40;;;;;;;;;;4998827;28;20409;-82
2022/03/04 10:12:46;;;;;;;11.30;5.90;;;;;;;;;;5016540;28;20459;-82
2022/03/04 10:15:12;;;;;;;10.83;7.03;;;;;;;;;;5016373;28;20401;-84
2022/03/04 10:17:38;;;;;;;9.80;6.63;;;;;;;;;;4998526;28;20419;-84
2022/03/04 10:20:06;;;;;;;9.53;5.40;;;;;;;;;;5016050;28;20493;-84
2022/03/04 10:22:42;;;;;;;9.90;6.37;;;;;;;;;;4998680;28;20501;-82
2022/03/04 10:25:15;;;;;;;9.90;5.93;;;;;;;;;;5016221;28;20421;-82
2022/03/04 10:27:41;;;;;;;11.03;5.60;;;;;;;;;;5015693;28;20468;-83
2022/03/04 10:30:07;;;;;;;11.63;7.17;;;;;;;;;;5015922;28;20769;-82
2022/03/04 10:32:36;;;;;;;11.40;5.50;;;;;;;;;;5015528;28;20408;-82
2022/03/04 10:35:06;;;;;;;9.40;5.90;;;;;;;;;;5015190;28;20422;-82
2022/03/04 10:37:39;;;;;;;9.50;4.43;;;;;;;;;;5015813;28;20486;-82
2022/03/04 10:40:10;;;;;;;8.77;4.90;;;;;;;;;;5015584;28;20477;-83
2022/03/04 10:42:46;;;;;;;10.10;5.10;;;;;;;;;;5015900;28;20497;-82
2022/03/04 10:45:14;;;;;;;8.97;5.73;;;;;;;;;;4997945;28;20462;-82
2022/03/04 10:47:49;;;;;;;5.33;3.50;;;;;;;;;;5015338;28;20406;-82
2022/03/04 10:50:15;;;;;;;6.10;4.23;;;;;;;;;;5015583;28;20490;-82
2022/03/04 10:52:48;;;;;;;6.43;4.40;;;;;;;;;;5015753;28;20405;-82
2022/03/04 10:55:24;;;;;;;6.17;4.60;;;;;;;;;;5015562;28;20414;-82
2022/03/04 10:57:50;;;;;;;7.03;4.90;;;;;;;;;;5015670;28;20468;-82
2022/03/04 11:00:23;;;;;;;9.67;5.33;;;;;;;;;;5015330;28;20488;-82
2022/03/04 11:02:49;;;;;;;7.83;3.87;;;;;;;;;;5015307;28;20410;-82
2022/03/04 11:05:15;;;;;;;7.20;4.93;;;;;;;;;;5015409;28;20476;-82
2022/03/04 11:07:42;;;;;;;11.97;6.23;;;;;;;;;;5015208;28;20748;-82
2022/03/04 11:10:08;;;;;;;7.63;4.37;;;;;;;;;;5015086;28;20409;-83
2022/03/04 11:12:34;;;;;;;6.63;3.90;;;;;;;;;;5014927;28;20890;-81
2022/03/04 11:15:01;;;;;;;6.77;2.90;;;;;;;;;;5015255;28;20406;-82
2022/03/04 11:17:29;;;;;;;10.90;4.43;;;;;;;;;;5015426;28;20924;-82
2022/03/04 11:19:55;;;;;;;6.53;4.50;;;;;;;;;;5015482;28;20562;-82
2022/03/04 11:22:21;;;;;;;9.53;4.00;;;;;;;;;;4998081;28;20995;-82
2022/03/04 11:24:48;;;;;;;6.27;3.93;;;;;;;;;;5015808;28;20448;-82
2022/03/04 11:27:15;;;;;;;6.13;3.20;;;;;;;;;;5015812;28;20466;-82
2022/03/04 11:29:41;;;;;;;6.60;3.40;;;;;;;;;;5015470;28;20432;-82
2022/03/04 11:32:08;;;;;;;6.67;3.47;;;;;;;;;;5015405;28;20434;-83
2022/03/04 11:34:46;;;;;;;6.37;3.60;;;;;;;;;;4998053;28;20468;-83
2022/03/04 11:37:17;;;;;;;6.97;4.17;;;;;;;;;;5015434;28;20895;-83
2022/03/04 11:40:01;;;;;;;4.57;3.30;;;;;;;;;;5016195;28;20959;-83
2022/03/04 11:42:36;;;;;;;6.97;2.67;;;;;;;;;;4996745;28;20429;-85
2022/03/04 11:45:02;;;;;;;6.90;3.00;;;;;;;;;;4996964;28;20444;-83
2022/03/04 11:47:37;;;;;;;7.47;3.40;;;;;;;;;;5014669;28;20417;-83
2022/03/04 11:50:22;;;;;;;5.23;3.73;;;;;;;;;;4997332;28;20912;-82
2022/03/04 11:52:48;;;;;;;5.90;2.80;;;;;;;;;;5015273;28;20412;-83
2022/03/04 11:55:21;;;;;;;8.63;3.10;;;;;;;;;;5015071;28;20411;-82
2022/03/04 11:57:48;;;;;;;7.57;4.07;;;;;;;;;;5015020;28;20467;-82
2022/03/04 12:00:14;;;;;;;4.40;3.13;;;;;;;;;;5015016;28;20842;-83
2022/03/04 12:02:43;;;;;;;7.83;4.13;;;;;;;;;;5014568;28;20428;-83
2022/03/04 12:05:29;;;;;;;7.43;4.20;;;;;;;;;;5014180;28;20500;-83
2022/03/04 12:07:55;;;;;;;7.03;3.10;;;;;;;;;;5014221;28;20772;-83
2022/03/04 12:10:22;;;;;;;6.60;3.13;;;;;;;;;;5014205;28;20413;-83
2022/03/04 12:13:00;;;;;;;5.33;3.27;;;;;;;;;;5014239;28;20168;-83
2022/03/04 12:15:26;;;;;;;9.23;4.23;;;;;;;;;;5014035;28;20427;-83
2022/03/04 12:17:53;;;;;;;6.43;3.77;;;;;;;;;;5013683;28;20478;-83
2022/03/04 12:20:37;;;;;;;5.20;3.37;;;;;;;;;;5013924;28;20572;-84
2022/03/04 12:23:08;;;;;;;5.10;4.00;;;;;;;;;;5013997;28;20400;-83
2022/03/04 12:25:55;;;;;;;6.53;4.20;;;;;;;;;;5012817;28;20420;-84
2022/03/04 12:28:46;;;;;;;7.67;3.93;;;;;;;;;;5013526;28;20545;-81
2022/03/04 12:31:11;;;;;;;5.73;3.70;;;;;;;;;;5013544;28;20421;-84
2022/03/04 12:33:39;;;;;;;7.30;3.50;;;;;;;;;;4996100;28;20767;-84
2022/03/04 12:36:06;;;;;;;4.87;3.30;;;;;;;;;;5013545;28;20184;-84
2022/03/04 12:38:39;;;;;;;3.90;3.23;;;;;;;;;;5013705;28;20935;-84
2022/03/04 12:41:06;;;;;;;5.53;4.23;;;;;;;;;;4995835;28;20445;-84
2022/03/04 12:43:32;;;;;;;6.43;3.17;;;;;;;;;;5013491;28;20405;-84
2022/03/04 12:45:58;;;;;;;3.87;3.27;;;;;;;;;;5013572;28;20898;-84
2022/03/04 12:48:26;;;;;;;4.43;3.87;;;;;;;;;;5013246;28;20416;-84
2022/03/04 12:50:52;;;;;;;5.20;3.23;;;;;;;;;;5013391;28;20493;-82
2022/03/04 12:53:22;;;;;;;5.20;3.73;;;;;;;;;;5013351;28;20506;-81
2022/03/04 12:55:52;;;;;;;4.60;3.30;;;;;;;;;;5013347;28;20182;-84
2022/03/04 12:58:33;;;;;;;5.50;3.33;;;;;;;;;;5013353;28;20424;-84
2022/03/04 13:00:59;;;;;;;3.50;2.57;;;;;;;;;;5013478;28;20484;-81
2022/03/04 13:03:25;;;;;;;4.27;2.77;;;;;;;;;;5012988;28;20416;-82
2022/03/04 13:05:51;;;;;;;3.40;2.90;;;;;;;;;;4995703;28;20887;-84
2022/03/04 13:08:17;;;;;;;6.53;3.53;;;;;;;;;;5013567;28;20521;-87
2022/03/04 13:10:44;;;;;;;3.97;3.00;;;;;;;;;;5014422;28;20968;-88
2022/03/04 13:13:10;;;;;;;5.10;3.60;;;;;;;;;;5014925;28;20906;-87
2022/03/04 13:15:36;;;;;;;3.50;2.97;;;;;;;;;;5012967;28;20417;-89
2022/03/04 13:18:02;;;;;;;3.67;2.63;;;;;;;;;;4995106;28;20421;-87
2022/03/04 13:20:28;;;;;;;4.50;1.90;;;;;;;;;;5012841;28;20526;-79
2022/03/04 13:23:07;;;;;;;3.90;2.33;;;;;;;;;;5012503;28;20407;-80
2022/03/04 13:25:33;;;;;;;5.30;3.30;;;;;;;;;;5012149;28;21172;-79
2022/03/04 13:27:59;;;;;;;3.33;1.83;;;;;;;;;;5004831;28;20527;-77
2022/03/04 13:30:25;;;;;;;6.37;2.83;;;;;;;;;;5004991;28;20430;-78
2022/03/04 13:32:55;;;;;;;2.83;2.00;;;;;;;;;;5008939;28;20953;-78
2022/03/04 13:35:22;;;;;;;3.47;1.67;;;;;;;;;;5004501;28;20509;-78
2022/03/04 13:37:48;;;;;;;7.00;2.20;;;;;;;;;;5016578;28;20499;-78
2022/03/04 13:40:20;;;;;;;5.20;2.60;;;;;;;;;;5016355;28;20528;-78
2022/03/04 13:42:52;;;;;;;2.20;1.73;;;;;;;;;;5016532;28;20944;-78
2022/03/04 13:45:38;;;;;;;3.30;2.17;;;;;;;;;;5016667;28;20442;-79
2022/03/04 13:48:05;;;;;;;3.40;2.10;;;;;;;;;;5016323;28;20415;-78
2022/03/04 13:50:35;;;;;;;3.67;2.27;;;;;;;;;;5016552;28;20427;-79
2022/03/04 13:53:04;;;;;;;8.37;2.70;;;;;;;;;;5016669;28;20415;-79
2022/03/04 13:55:35;;;;;;;2.50;1.63;;;;;;;;;;5016415;28;20420;-78
2022/03/04 13:58:09;;;;;;;2.30;1.40;;;;;;;;;;5016505;28;20425;-79
2022/03/04 14:00:35;;;;;;;3.37;1.50;;;;;;;;;;5016220;28;21083;-79
2022/03/04 14:03:06;;;;;;;3.20;1.17;;;;;;;;;;4998383;28;20457;-80
2022/03/04 14:05:33;;;;;;;4.47;1.73;;;;;;;;;;5016184;28;20416;-80
2022/03/04 14:08:07;;;;;;;5.07;1.57;;;;;;;;;;4998472;28;20424;-79
2022/03/04 14:10:34;;;;;;;5.13;1.70;;;;;;;;;;5016167;28;20420;-79
2022/03/04 14:13:01;;;;;;;5.57;1.00;;;;;;;;;;5016121;28;20413;-80
2022/03/04 14:15:27;;;;;;;2.50;1.27;;;;;;;;;;4998319;28;20427;-80
2022/03/04 14:17:55;;;;;;;3.17;1.97;;;;;;;;;;5015174;28;20422;-80
2022/03/04 14:20:21;;;;;;;4.57;1.90;;;;;;;;;;5015820;28;20490;-79
2022/03/04 14:22:47;;;;;;;4.67;2.03;;;;;;;;;;5015826;28;20414;-80
2022/03/04 14:25:15;;;;;;;2.67;1.03;;;;;;;;;;5016014;28;20537;-80
2022/03/04 14:27:43;;;;;;;2.90;0.87;;;;;;;;;;5015525;28;20511;-79
2022/03/04 14:30:13;;;;;;;3.10;1.80;;;;;;;;;;5015781;28;20912;-79
2022/03/04 14:32:43;;;;;;;6.10;1.60;;;;;;;;;;5015519;28;20413;-80